Terminal Aerodrome Forecast
Issued by NWS Greer, SC

Home | Current Version | Previous Version | Text Only | Print | Product List | Glossary On
Versions: 1 2 3 4 5 6 7 8 9 10 11 12 13 14 15 16 17
531
FTUS42 KGSP 302320
TAFGSP
TAF
KGSP 302320Z 3100/3124 23004KT P6SM SCT060
      TEMPO 3100/3101 01009KT SCT020 BKN060
     FM310900 24003KT 4SM BR SCT060
     FM311300 24003KT P6SM SCT060
     FM311800 22011G18KT P6SM BKN060 PROB30 3118/3123 4SM -TSRA
      OVC040CB=

USA.gov is the U.S. government's official web portal to all federal, state and local government web resources and services.